sensor_id;sensor_type;location;lat;lon;timestamp;pressure;altitude;pressure_sealevel;temperature;humidity
40490;BME280;26196;52.302;10.572;2023-11-21T00:03:06;100002.34;;;14.29;59.33
40490;BME280;26196;52.302;10.572;2023-11-21T00:07:07;99998.25;;;14.23;58.97
40490;BME280;26196;52.302;10.572;2023-11-21T00:11:07;100004.19;;;14.27;59.29
40490;BME280;26196;52.302;10.572;2023-11-21T00:15:08;99895.06;;;13.65;58.52
40490;BME280;26196;52.302;10.572;2023-11-21T00:19:12;99955.72;;;13.96;58.83
40490;BME280;26196;52.302;10.572;2023-11-21T00:23:12;99996.91;;;14.15;58.57
40490;BME280;26196;52.302;10.572;2023-11-21T00:27:12;100021.56;;;14.31;58.65
40490;BME280;26196;52.302;10.572;2023-11-21T00:31:13;100009.63;;;14.24;58.75
40490;BME280;26196;52.302;10.572;2023-11-21T00:35:13;100010.63;;;14.21;58.82
40490;BME280;26196;52.302;10.572;2023-11-21T00:39:14;100006.16;;;14.23;59.00
40490;BME280;26196;52.302;10.572;2023-11-21T00:43:14;100020.69;;;14.31;58.76
40490;BME280;26196;52.302;10.572;2023-11-21T00:47:15;99984.28;;;14.04;58.45
40490;BME280;26196;52.302;10.572;2023-11-21T00:51:15;99999.88;;;14.09;58.44
40490;BME280;26196;52.302;10.572;2023-11-21T00:55:16;99985.41;;;14.00;58.73
40490;BME280;26196;52.302;10.572;2023-11-21T00:59:21;100033.84;;;14.13;58.59
40490;BME280;26196;52.302;10.572;2023-11-21T01:03:23;99962.75;;;13.78;58.17
40490;BME280;26196;52.302;10.572;2023-11-21T01:07:23;100032.69;;;14.19;58.90
40490;BME280;26196;52.302;10.572;2023-11-21T01:11:24;100055.28;;;14.23;58.44
40490;BME280;26196;52.302;10.572;2023-11-21T01:15:24;100052.59;;;14.25;58.83
40490;BME280;26196;52.302;10.572;2023-11-21T01:19:26;100050.91;;;14.23;58.27
40490;BME280;26196;52.302;10.572;2023-11-21T01:23:26;100050.03;;;14.23;58.46
40490;BME280;26196;52.302;10.572;2023-11-21T01:27:27;100054.44;;;14.22;58.22
40490;BME280;26196;52.302;10.572;2023-11-21T01:31:27;100031.44;;;14.09;58.62
40490;BME280;26196;52.302;10.572;2023-11-21T01:35:29;100056.16;;;14.23;58.41
40490;BME280;26196;52.302;10.572;2023-11-21T01:39:30;99973.22;;;13.80;58.33
40490;BME280;26196;52.302;10.572;2023-11-21T01:43:31;100042.50;;;14.15;58.27
40490;BME280;26196;52.302;10.572;2023-11-21T01:47:33;99998.59;;;13.81;58.43
40490;BME280;26196;52.302;10.572;2023-11-21T01:51:33;100004.16;;;13.75;58.62
40490;BME280;26196;52.302;10.572;2023-11-21T01:55:34;100076.66;;;14.17;58.66
40490;BME280;26196;52.302;10.572;2023-11-21T01:59:37;100071.75;;;14.09;58.07
40490;BME280;26196;52.302;10.572;2023-11-21T02:03:38;100019.16;;;13.73;58.83
40490;BME280;26196;52.302;10.572;2023-11-21T02:07:39;100039.03;;;13.78;58.27
40490;BME280;26196;52.302;10.572;2023-11-21T02:11:40;100071.34;;;13.99;58.01
40490;BME280;26196;52.302;10.572;2023-11-21T02:15:40;100033.22;;;13.72;58.22
40490;BME280;26196;52.302;10.572;2023-11-21T02:19:41;100005.66;;;13.62;58.15
40490;BME280;26196;52.302;10.572;2023-11-21T02:23:41;100044.16;;;13.82;58.17
40490;BME280;26196;52.302;10.572;2023-11-21T02:27:44;100080.97;;;14.00;58.30
40490;BME280;26196;52.302;10.572;2023-11-21T02:31:51;100083.66;;;13.99;58.39
40490;BME280;26196;52.302;10.572;2023-11-21T02:35:54;100102.66;;;14.06;58.18
40490;BME280;26196;52.302;10.572;2023-11-21T02:39:54;100038.41;;;13.73;57.92
40490;BME280;26196;52.302;10.572;2023-11-21T02:43:55;100091.97;;;14.09;58.33
40490;BME280;26196;52.302;10.572;2023-11-21T02:47:55;100093.19;;;14.01;58.18
40490;BME280;26196;52.302;10.572;2023-11-21T02:51:57;100104.28;;;14.08;58.47
40490;BME280;26196;52.302;10.572;2023-11-21T02:55:57;100081.03;;;13.99;58.12
40490;BME280;26196;52.302;10.572;2023-11-21T02:59:57;100033.59;;;13.64;58.11
40490;BME280;26196;52.302;10.572;2023-11-21T03:03:58;100043.13;;;13.67;58.41
40490;BME280;26196;52.302;10.572;2023-11-21T03:07:58;100077.50;;;13.81;58.04
40490;BME280;26196;52.302;10.572;2023-11-21T03:11:58;100102.28;;;13.94;58.29
40490;BME280;26196;52.302;10.572;2023-11-21T03:15:59;100124.75;;;14.01;58.01
40490;BME280;26196;52.302;10.572;2023-11-21T03:20:00;100116.19;;;13.98;58.45
40490;BME280;26196;52.302;10.572;2023-11-21T03:24:00;100123.06;;;14.00;57.99
40490;BME280;26196;52.302;10.572;2023-11-21T03:28:00;100109.28;;;13.95;58.39
40490;BME280;26196;52.302;10.572;2023-11-21T03:32:01;100059.06;;;13.64;57.76
40490;BME280;26196;52.302;10.572;2023-11-21T03:36:02;100106.91;;;13.89;58.29
40490;BME280;26196;52.302;10.572;2023-11-21T03:40:04;100145.97;;;13.98;58.26
40490;BME280;26196;52.302;10.572;2023-11-21T03:44:04;100076.03;;;13.56;58.42
40490;BME280;26196;52.302;10.572;2023-11-21T03:48:05;100135.81;;;13.91;58.55
40490;BME280;26196;52.302;10.572;2023-11-21T03:52:05;100061.81;;;13.42;58.17
40490;BME280;26196;52.302;10.572;2023-11-21T03:56:06;100148.75;;;13.95;57.85
40490;BME280;26196;52.302;10.572;2023-11-21T04:00:07;100089.97;;;13.59;58.22
40490;BME280;26196;52.302;10.572;2023-11-21T04:04:10;100044.69;;;13.33;58.09
40490;BME280;26196;52.302;10.572;2023-11-21T04:08:11;100109.66;;;13.69;58.11
40490;BME280;26196;52.302;10.572;2023-11-21T04:12:11;100157.28;;;14.00;57.75
40490;BME280;26196;52.302;10.572;2023-11-21T04:16:11;100134.66;;;13.77;57.90
40490;BME280;26196;52.302;10.572;2023-11-21T04:20:13;100117.41;;;13.72;57.63
40490;BME280;26196;52.302;10.572;2023-11-21T04:24:13;100153.22;;;13.93;57.67
40490;BME280;26196;52.302;10.572;2023-11-21T04:28:13;100107.44;;;13.60;58.40
40490;BME280;26196;52.302;10.572;2023-11-21T04:32:14;100122.88;;;13.67;57.98
40490;BME280;26196;52.302;10.572;2023-11-21T04:36:14;100185.13;;;14.05;57.54
40490;BME280;26196;52.302;10.572;2023-11-21T04:40:14;100169.72;;;13.97;57.61
40490;BME280;26196;52.302;10.572;2023-11-21T04:44:15;100159.78;;;13.85;57.66
40490;BME280;26196;52.302;10.572;2023-11-21T04:48:16;100166.88;;;13.83;57.67
40490;BME280;26196;52.302;10.572;2023-11-21T04:52:16;100134.53;;;13.62;58.07
40490;BME280;26196;52.302;10.572;2023-11-21T04:56:17;100161.19;;;13.73;58.14
40490;BME280;26196;52.302;10.572;2023-11-21T05:00:17;100195.47;;;13.90;57.84
40490;BME280;26196;52.302;10.572;2023-11-21T05:04:18;100227.25;;;14.05;57.97
40490;BME280;26196;52.302;10.572;2023-11-21T05:08:18;100214.53;;;13.95;58.43
40490;BME280;26196;52.302;10.572;2023-11-21T05:12:22;100218.72;;;13.99;57.86
40490;BME280;26196;52.302;10.572;2023-11-21T05:16:25;100206.13;;;13.87;58.42
40490;BME280;26196;52.302;10.572;2023-11-21T05:20:27;100178.25;;;13.64;57.84
40490;BME280;26196;52.302;10.572;2023-11-21T05:24:28;100238.06;;;13.98;58.10
40490;BME280;26196;52.302;10.572;2023-11-21T05:28:28;100257.13;;;14.04;58.20
40490;BME280;26196;52.302;10.572;2023-11-21T05:32:29;100207.63;;;13.74;58.09
40490;BME280;26196;52.302;10.572;2023-11-21T05:36:29;100267.50;;;14.07;57.91
40490;BME280;26196;52.302;10.572;2023-11-21T05:40:29;100203.41;;;13.70;58.72
40490;BME280;26196;52.302;10.572;2023-11-21T05:44:30;100267.50;;;14.07;58.34
40490;BME280;26196;52.302;10.572;2023-11-21T05:48:30;100204.44;;;13.66;58.43
40490;BME280;26196;52.302;10.572;2023-11-21T05:52:31;100272.88;;;14.05;58.29
40490;BME280;26196;52.302;10.572;2023-11-21T05:56:32;100263.72;;;13.93;58.73
40490;BME280;26196;52.302;10.572;2023-11-21T06:00:33;100217.75;;;13.63;58.44
40490;BME280;26196;52.302;10.572;2023-11-21T06:04:33;100241.03;;;13.72;58.51
40490;BME280;26196;52.302;10.572;2023-11-21T06:08:33;100235.34;;;13.61;58.79
40490;BME280;26196;52.302;10.572;2023-11-21T06:12:34;100247.97;;;13.73;58.72
40490;BME280;26196;52.302;10.572;2023-11-21T06:16:35;100314.97;;;14.05;58.94
40490;BME280;26196;52.302;10.572;2023-11-21T06:20:36;100318.59;;;14.03;58.57
40490;BME280;26196;52.302;10.572;2023-11-21T06:24:37;100321.94;;;14.06;58.22
40490;BME280;26196;52.302;10.572;2023-11-21T06:28:38;100274.38;;;13.71;58.43
40490;BME280;26196;52.302;10.572;2023-11-21T06:32:38;100276.41;;;13.65;58.50
40490;BME280;26196;52.302;10.572;2023-11-21T06:36:42;100332.78;;;13.98;58.51
40490;BME280;26196;52.302;10.572;2023-11-21T06:40:42;100281.00;;;13.60;58.66
40490;BME280;26196;52.302;10.572;2023-11-21T06:44:42;100360.91;;;13.98;58.63
40490;BME280;26196;52.302;10.572;2023-11-21T06:48:44;100372.13;;;14.01;58.70
40490;BME280;26196;52.302;10.572;2023-11-21T06:52:45;100381.84;;;13.99;58.62
40490;BME280;26196;52.302;10.572;2023-11-21T06:56:46;100390.50;;;14.03;58.58
40490;BME280;26196;52.302;10.572;2023-11-21T07:00:47;100333.47;;;13.63;58.82
40490;BME280;26196;52.302;10.572;2023-11-21T07:04:50;100407.84;;;14.07;58.47
40490;BME280;26196;52.302;10.572;2023-11-21T07:08:50;100327.53;;;13.57;59.08
40490;BME280;26196;52.302;10.572;2023-11-21T07:12:50;100402.16;;;13.97;57.86
40490;BME280;26196;52.302;10.572;2023-11-21T07:16:51;100394.59;;;13.90;58.19
40490;BME280;26196;52.302;10.572;2023-11-21T07:20:52;100416.81;;;14.03;58.60
40490;BME280;26196;52.302;10.572;2023-11-21T07:24:53;100418.66;;;14.01;58.32
40490;BME280;26196;52.302;10.572;2023-11-21T07:28:54;100431.66;;;14.04;58.14
40490;BME280;26196;52.302;10.572;2023-11-21T07:32:54;100447.28;;;14.09;58.07
40490;BME280;26196;52.302;10.572;2023-11-21T07:36:55;100389.22;;;13.71;58.24
40490;BME280;26196;52.302;10.572;2023-11-21T07:40:55;100443.31;;;13.98;57.60
40490;BME280;26196;52.302;10.572;2023-11-21T07:44:55;100453.03;;;13.96;58.12
40490;BME280;26196;52.302;10.572;2023-11-21T07:48:56;100460.03;;;13.97;58.36
40490;BME280;26196;52.302;10.572;2023-11-21T07:52:57;100408.09;;;13.60;58.32
40490;BME280;26196;52.302;10.572;2023-11-21T07:56:58;100479.44;;;13.95;57.78
40490;BME280;26196;52.302;10.572;2023-11-21T08:00:58;100512.41;;;14.04;57.83
40490;BME280;26196;52.302;10.572;2023-11-21T08:04:58;100507.16;;;14.04;57.90
40490;BME280;26196;52.302;10.572;2023-11-21T08:08:59;100526.50;;;14.03;57.87
40490;BME280;26196;52.302;10.572;2023-11-21T08:12:59;100522.94;;;14.04;57.84
40490;BME280;26196;52.302;10.572;2023-11-21T08:16:59;100512.91;;;13.91;57.85
40490;BME280;26196;52.302;10.572;2023-11-21T08:21:00;100471.81;;;13.67;57.41
40490;BME280;26196;52.302;10.572;2023-11-21T08:25:00;100525.75;;;13.99;58.10
40490;BME280;26196;52.302;10.572;2023-11-21T08:29:01;100542.28;;;14.03;57.72
40490;BME280;26196;52.302;10.572;2023-11-21T08:33:01;100486.00;;;13.63;57.77
40490;BME280;26196;52.302;10.572;2023-11-21T08:37:03;100491.09;;;13.67;57.36
40490;BME280;26196;52.302;10.572;2023-11-21T08:41:05;100554.56;;;14.02;57.39
40490;BME280;26196;52.302;10.572;2023-11-21T08:45:09;100481.84;;;13.57;57.46
40490;BME280;26196;52.302;10.572;2023-11-21T08:49:09;100548.75;;;13.94;57.14
40490;BME280;26196;52.302;10.572;2023-11-21T08:53:10;100549.31;;;14.02;58.03
40490;BME280;26196;52.302;10.572;2023-11-21T08:57:11;100575.63;;;14.24;57.53
40490;BME280;26196;52.302;10.572;2023-11-21T09:01:11;100568.75;;;14.20;57.00
40490;BME280;26196;52.302;10.572;2023-11-21T09:05:13;100538.69;;;14.05;56.15
40490;BME280;26196;52.302;10.572;2023-11-21T09:09:14;100561.72;;;14.20;57.09
40490;BME280;26196;52.302;10.572;2023-11-21T09:13:14;100579.09;;;14.25;57.85
40490;BME280;26196;52.302;10.572;2023-11-21T09:17:17;100579.94;;;14.25;57.55
40490;BME280;26196;52.302;10.572;2023-11-21T09:21:17;100596.16;;;14.36;57.19
40490;BME280;26196;52.302;10.572;2023-11-21T09:25:18;100605.78;;;14.37;57.71
40490;BME280;26196;52.302;10.572;2023-11-21T09:29:18;100538.00;;;14.00;57.43
40490;BME280;26196;52.302;10.572;2023-11-21T09:33:19;100600.69;;;14.33;57.35
40490;BME280;26196;52.302;10.572;2023-11-21T09:37:21;100625.03;;;14.39;57.53
40490;BME280;26196;52.302;10.572;2023-11-21T09:41:28;100565.03;;;14.04;57.67
40490;BME280;26196;52.302;10.572;2023-11-21T09:45:35;100561.47;;;14.05;57.33
40490;BME280;26196;52.302;10.572;2023-11-21T09:49:35;100572.63;;;14.11;57.74
40490;BME280;26196;52.302;10.572;2023-11-21T09:53:37;100615.50;;;14.35;57.63
40490;BME280;26196;52.302;10.572;2023-11-21T09:57:38;100651.66;;;14.54;57.56
40490;BME280;26196;52.302;10.572;2023-11-21T10:01:40;100614.25;;;14.23;57.27
40490;BME280;26196;52.302;10.572;2023-11-21T10:05:45;100660.59;;;14.50;57.43
40490;BME280;26196;52.302;10.572;2023-11-21T10:09:47;100617.78;;;14.22;57.48
40490;BME280;26196;52.302;10.572;2023-11-21T10:13:49;100618.78;;;14.20;57.23
40490;BME280;26196;52.302;10.572;2023-11-21T10:17:52;100677.94;;;14.55;57.36
40490;BME280;26196;52.302;10.572;2023-11-21T10:21:53;100678.00;;;14.54;57.36
40490;BME280;26196;52.302;10.572;2023-11-21T10:25:55;100630.06;;;14.23;57.06
40490;BME280;26196;52.302;10.572;2023-11-21T10:29:55;100679.88;;;14.50;57.16
40490;BME280;26196;52.302;10.572;2023-11-21T10:34:16;100694.56;;;14.57;57.73
40490;BME280;26196;52.302;10.572;2023-11-21T10:38:18;100687.63;;;14.55;57.01
40490;BME280;26196;52.302;10.572;2023-11-21T10:42:21;100632.88;;;14.19;57.05
40490;BME280;26196;52.302;10.572;2023-11-21T10:46:22;100699.03;;;14.55;57.22
40490;BME280;26196;52.302;10.572;2023-11-21T10:50:23;100649.34;;;14.24;57.19
40490;BME280;26196;52.302;10.572;2023-11-21T10:54:26;100699.75;;;14.59;57.22
40490;BME280;26196;52.302;10.572;2023-11-21T10:58:26;100651.16;;;14.22;57.21
40490;BME280;26196;52.302;10.572;2023-11-21T11:02:27;100712.91;;;14.59;57.03
40490;BME280;26196;52.302;10.572;2023-11-21T11:06:28;100669.41;;;14.27;57.46
40490;BME280;26196;52.302;10.572;2023-11-21T11:10:28;100741.63;;;14.65;56.98
40490;BME280;26196;52.302;10.572;2023-11-21T11:14:32;100723.41;;;14.60;57.12
40490;BME280;26196;52.302;10.572;2023-11-21T11:18:33;100725.91;;;14.63;57.11
40490;BME280;26196;52.302;10.572;2023-11-21T11:22:40;100738.94;;;14.66;56.96
40490;BME280;26196;52.302;10.572;2023-11-21T11:27:08;100699.44;;;14.44;57.01
40490;BME280;26196;52.302;10.572;2023-11-21T11:31:38;100731.22;;;14.62;56.85
40490;BME280;26196;52.302;10.572;2023-11-21T11:36:00;100751.81;;;14.74;56.79
40490;BME280;26196;52.302;10.572;2023-11-21T11:40:06;100690.31;;;14.31;57.30
40490;BME280;26196;52.302;10.572;2023-11-21T11:49:02;100770.13;;;14.77;56.99
40490;BME280;26196;52.302;10.572;2023-11-21T11:53:14;100737.56;;;14.58;57.14
40490;BME280;26196;52.302;10.572;2023-11-21T11:57:16;100752.13;;;14.66;57.33
40490;BME280;26196;52.302;10.572;2023-11-21T12:01:21;100733.41;;;14.51;57.16
40490;BME280;26196;52.302;10.572;2023-11-21T12:05:22;100715.22;;;14.44;57.48
40490;BME280;26196;52.302;10.572;2023-11-21T12:09:23;100686.78;;;14.31;57.43
40490;BME280;26196;52.302;10.572;2023-11-21T12:13:24;100706.56;;;14.41;57.48
40490;BME280;26196;52.302;10.572;2023-11-21T12:17:24;100736.97;;;14.50;57.32
40490;BME280;26196;52.302;10.572;2023-11-21T12:21:25;100726.44;;;14.50;57.96
40490;BME280;26196;52.302;10.572;2023-11-21T12:25:30;100749.91;;;14.56;57.47
40490;BME280;26196;52.302;10.572;2023-11-21T12:29:34;100797.16;;;14.82;57.24
40490;BME280;26196;52.302;10.572;2023-11-21T12:33:37;100732.97;;;14.39;56.90
40490;BME280;26196;52.302;10.572;2023-11-21T12:37:39;100745.91;;;14.45;56.85
40490;BME280;26196;52.302;10.572;2023-11-21T12:41:39;100842.63;;;14.87;57.21
40490;BME280;26196;52.302;10.572;2023-11-21T12:45:39;100841.72;;;14.88;57.31
40490;BME280;26196;52.302;10.572;2023-11-21T12:49:40;100774.75;;;14.49;56.91
40490;BME280;26196;52.302;10.572;2023-11-21T12:53:44;100834.19;;;14.79;57.14
40490;BME280;26196;52.302;10.572;2023-11-21T12:57:45;100828.22;;;14.74;57.28
40490;BME280;26196;52.302;10.572;2023-11-21T13:01:46;100777.47;;;14.47;57.03
40490;BME280;26196;52.302;10.572;2023-11-21T13:05:48;100854.91;;;14.88;56.88
40490;BME280;26196;52.302;10.572;2023-11-21T13:09:54;100860.94;;;14.91;57.08
40490;BME280;26196;52.302;10.572;2023-11-21T13:13:54;100813.81;;;14.61;57.13
40490;BME280;26196;52.302;10.572;2023-11-21T13:17:56;100872.31;;;14.93;56.76
40490;BME280;26196;52.302;10.572;2023-11-21T13:21:57;100864.53;;;14.90;56.72
40490;BME280;26196;52.302;10.572;2023-11-21T13:25:58;100801.69;;;14.57;56.75
40490;BME280;26196;52.302;10.572;2023-11-21T13:30:04;100878.41;;;14.93;56.63
40490;BME280;26196;52.302;10.572;2023-11-21T13:34:05;100873.41;;;14.87;56.85
40490;BME280;26196;52.302;10.572;2023-11-21T13:38:07;100815.91;;;14.53;56.36
40490;BME280;26196;52.302;10.572;2023-11-21T13:42:09;100889.94;;;14.91;56.39
40490;BME280;26196;52.302;10.572;2023-11-21T13:46:11;100898.78;;;14.90;56.70
40490;BME280;26196;52.302;10.572;2023-11-21T13:50:18;100857.56;;;14.65;56.59
40490;BME280;26196;52.302;10.572;2023-11-21T13:54:22;100897.16;;;14.85;56.63
40490;BME280;26196;52.302;10.572;2023-11-21T13:58:25;100897.13;;;14.87;56.59
40490;BME280;26196;52.302;10.572;2023-11-21T14:02:43;100876.75;;;14.69;56.59
40490;BME280;26196;52.302;10.572;2023-11-21T14:06:46;100930.25;;;14.94;56.95
40490;BME280;26196;52.302;10.572;2023-11-21T14:10:50;100944.28;;;14.95;56.99
40490;BME280;26196;52.302;10.572;2023-11-21T14:14:57;100886.91;;;14.56;56.36
40490;BME280;26196;52.302;10.572;2023-11-21T14:18:58;100923.91;;;14.76;56.32
40490;BME280;26196;52.302;10.572;2023-11-21T14:23:10;100917.25;;;14.66;56.33
40490;BME280;26196;52.302;10.572;2023-11-21T14:27:10;100957.19;;;14.79;56.61
40490;BME280;26196;52.302;10.572;2023-11-21T14:31:11;100983.94;;;14.92;56.30
40490;BME280;26196;52.302;10.572;2023-11-21T14:35:15;100992.56;;;14.95;57.45
40490;BME280;26196;52.302;10.572;2023-11-21T14:39:17;100977.84;;;14.90;56.04
40490;BME280;26196;52.302;10.572;2023-11-21T14:43:23;100919.72;;;14.45;55.99
40490;BME280;26196;52.302;10.572;2023-11-21T14:47:24;100978.38;;;14.76;55.80
40490;BME280;26196;52.302;10.572;2023-11-21T14:51:30;100991.28;;;14.83;56.08
40490;BME280;26196;52.302;10.572;2023-11-21T14:55:31;100967.19;;;14.69;55.59
40490;BME280;26196;52.302;10.572;2023-11-21T14:59:50;101000.16;;;14.81;55.52
40490;BME280;26196;52.302;10.572;2023-11-21T15:03:58;101032.50;;;14.84;55.34
40490;BME280;26196;52.302;10.572;2023-11-21T15:07:58;100956.59;;;14.45;55.65
40490;BME280;26196;52.302;10.572;2023-11-21T15:12:13;101031.78;;;14.81;56.50
40490;BME280;26196;52.302;10.572;2023-11-21T15:16:14;100972.03;;;14.56;55.87
40490;BME280;26196;52.302;10.572;2023-11-21T15:20:15;101025.34;;;14.88;55.81
40490;BME280;26196;52.302;10.572;2023-11-21T15:24:19;101043.19;;;15.05;55.54
40490;BME280;26196;52.302;10.572;2023-11-21T15:28:19;101053.44;;;15.13;55.14
40490;BME280;26196;52.302;10.572;2023-11-21T15:32:19;100988.97;;;14.74;55.03
40490;BME280;26196;52.302;10.572;2023-11-21T15:36:20;101050.84;;;15.11;54.74
40490;BME280;26196;52.302;10.572;2023-11-21T15:40:21;101050.03;;;15.09;54.65
40490;BME280;26196;52.302;10.572;2023-11-21T15:44:21;101001.44;;;14.69;54.91
40490;BME280;26196;52.302;10.572;2023-11-21T15:48:22;100989.41;;;14.62;55.17
40490;BME280;26196;52.302;10.572;2023-11-21T15:52:23;100991.34;;;14.57;55.07
40490;BME280;26196;52.302;10.572;2023-11-21T15:56:23;100999.19;;;14.58;55.01
40490;BME280;26196;52.302;10.572;2023-11-21T16:00:23;101069.19;;;14.91;54.99
40490;BME280;26196;52.302;10.572;2023-11-21T16:04:24;101053.00;;;14.76;54.66
40490;BME280;26196;52.302;10.572;2023-11-21T16:08:26;101014.53;;;14.45;54.83
40490;BME280;26196;52.302;10.572;2023-11-21T16:12:27;101104.38;;;14.90;54.64
40490;BME280;26196;52.302;10.572;2023-11-21T16:16:27;100992.75;;;14.15;54.37
40490;BME280;26196;52.302;10.572;2023-11-21T16:20:28;101113.56;;;14.78;54.34
40490;BME280;26196;52.302;10.572;2023-11-21T16:24:28;101136.25;;;14.82;54.38
40490;BME280;26196;52.302;10.572;2023-11-21T16:28:30;101144.16;;;14.82;54.35
40490;BME280;26196;52.302;10.572;2023-11-21T16:32:30;101141.56;;;14.80;54.13
40490;BME280;26196;52.302;10.572;2023-11-21T16:36:32;101088.59;;;14.36;54.25
40490;BME280;26196;52.302;10.572;2023-11-21T16:40:32;101155.19;;;14.68;54.76
40490;BME280;26196;52.302;10.572;2023-11-21T16:44:33;101176.19;;;14.70;54.09
40490;BME280;26196;52.302;10.572;2023-11-21T16:48:33;101133.88;;;14.48;54.08
40490;BME280;26196;52.302;10.572;2023-11-21T16:52:34;101189.28;;;14.73;54.14
40490;BME280;26196;52.302;10.572;2023-11-21T16:56:34;101113.97;;;14.39;54.38
40490;BME280;26196;52.302;10.572;2023-11-21T17:00:36;101134.88;;;14.43;54.16
40490;BME280;26196;52.302;10.572;2023-11-21T17:04:36;101196.66;;;14.63;54.05
40490;BME280;26196;52.302;10.572;2023-11-21T17:08:41;101146.81;;;14.29;53.80
40490;BME280;26196;52.302;10.572;2023-11-21T17:12:42;101138.13;;;14.25;53.67
40490;BME280;26196;52.302;10.572;2023-11-21T17:16:43;101223.00;;;14.63;53.87
40490;BME280;26196;52.302;10.572;2023-11-21T17:20:44;101151.66;;;14.41;55.64
40490;BME280;26196;52.302;10.572;2023-11-21T17:24:44;101201.59;;;14.72;54.94
40490;BME280;26196;52.302;10.572;2023-11-21T17:28:45;101236.78;;;14.96;53.94
40490;BME280;26196;52.302;10.572;2023-11-21T17:32:45;101245.59;;;14.97;53.38
40490;BME280;26196;52.302;10.572;2023-11-21T17:36:45;101251.66;;;14.99;53.13
40490;BME280;26196;52.302;10.572;2023-11-21T17:40:46;101199.16;;;14.66;53.00
40490;BME280;26196;52.302;10.572;2023-11-21T17:44:46;101200.06;;;14.65;52.60
40490;BME280;26196;52.302;10.572;2023-11-21T17:48:48;101267.56;;;14.96;52.10
40490;BME280;26196;52.302;10.572;2023-11-21T17:52:49;101265.88;;;14.95;52.47
40490;BME280;26196;52.302;10.572;2023-11-21T17:56:49;101282.66;;;14.92;52.84
40490;BME280;26196;52.302;10.572;2023-11-21T18:00:50;101285.31;;;14.91;52.97
40490;BME280;26196;52.302;10.572;2023-11-21T18:04:50;101294.50;;;14.79;52.32
40490;BME280;26196;52.302;10.572;2023-11-21T18:08:51;101243.84;;;14.41;52.47
40490;BME280;26196;52.302;10.572;2023-11-21T18:12:51;101265.53;;;14.49;52.17
40490;BME280;26196;52.302;10.572;2023-11-21T18:16:52;101281.44;;;14.46;52.30
40490;BME280;26196;52.302;10.572;2023-11-21T18:20:52;101244.47;;;14.21;52.07
40490;BME280;26196;52.302;10.572;2023-11-21T18:24:53;101324.84;;;14.62;52.04
40490;BME280;26196;52.302;10.572;2023-11-21T18:28:54;101325.97;;;14.55;51.91
40490;BME280;26196;52.302;10.572;2023-11-21T18:32:54;101317.59;;;14.41;51.92
40490;BME280;26196;52.302;10.572;2023-11-21T18:36:55;101278.00;;;14.14;52.27
40490;BME280;26196;52.302;10.572;2023-11-21T18:40:56;101289.41;;;14.15;51.77
40490;BME280;26196;52.302;10.572;2023-11-21T18:44:57;101333.91;;;14.24;51.68
40490;BME280;26196;52.302;10.572;2023-11-21T18:48:57;101283.13;;;13.89;51.99
40490;BME280;26196;52.302;10.572;2023-11-21T18:52:58;101331.72;;;14.09;51.52
40490;BME280;26196;52.302;10.572;2023-11-21T18:56:59;101364.69;;;14.22;51.67
40490;BME280;26196;52.302;10.572;2023-11-21T19:00:59;101364.13;;;14.11;51.62
40490;BME280;26196;52.302;10.572;2023-11-21T19:04:59;101332.47;;;13.81;51.09
40490;BME280;26196;52.302;10.572;2023-11-21T19:09:04;101372.28;;;14.01;51.62
40490;BME280;26196;52.302;10.572;2023-11-21T19:13:04;101399.38;;;14.05;51.70
40490;BME280;26196;52.302;10.572;2023-11-21T19:17:05;101415.19;;;14.05;51.52
40490;BME280;26196;52.302;10.572;2023-11-21T19:21:12;101354.84;;;13.65;51.30
40490;BME280;26196;52.302;10.572;2023-11-21T19:25:13;101407.72;;;13.88;51.44
40490;BME280;26196;52.302;10.572;2023-11-21T19:29:13;101433.81;;;13.97;51.39
40490;BME280;26196;52.302;10.572;2023-11-21T19:33:13;101424.25;;;13.93;51.39
40490;BME280;26196;52.302;10.572;2023-11-21T19:37:14;101438.19;;;13.97;51.77
40490;BME280;26196;52.302;10.572;2023-11-21T19:41:16;101445.22;;;13.96;51.49
40490;BME280;26196;52.302;10.572;2023-11-21T19:45:16;101448.78;;;13.95;51.11
40490;BME280;26196;52.302;10.572;2023-11-21T19:49:17;101394.53;;;13.55;51.49
40490;BME280;26196;52.302;10.572;2023-11-21T19:53:20;101468.34;;;13.85;51.06
40490;BME280;26196;52.302;10.572;2023-11-21T19:57:21;101470.91;;;13.87;51.63
40490;BME280;26196;52.302;10.572;2023-11-21T20:01:21;101413.06;;;13.51;51.32
40490;BME280;26196;52.302;10.572;2023-11-21T20:05:21;101475.44;;;13.82;51.17
40490;BME280;26196;52.302;10.572;2023-11-21T20:09:22;101477.25;;;13.79;51.00
40490;BME280;26196;52.302;10.572;2023-11-21T20:13:22;101407.38;;;13.32;50.92
40490;BME280;26196;52.302;10.572;2023-11-21T20:17:23;101432.44;;;13.47;50.65
40490;BME280;26196;52.302;10.572;2023-11-21T20:21:24;101446.63;;;13.40;51.43
40490;BME280;26196;52.302;10.572;2023-11-21T20:25:28;101489.00;;;13.65;50.58
40490;BME280;26196;52.302;10.572;2023-11-21T20:29:32;101461.66;;;13.34;50.81
40490;BME280;26196;52.302;10.572;2023-11-21T20:33:33;101507.41;;;13.66;50.70
40490;BME280;26196;52.302;10.572;2023-11-21T20:37:34;101443.47;;;13.24;51.05
40490;BME280;26196;52.302;10.572;2023-11-21T20:41:34;101477.41;;;13.36;50.87
40490;BME280;26196;52.302;10.572;2023-11-21T20:45:34;101501.66;;;13.50;51.50
40490;BME280;26196;52.302;10.572;2023-11-21T20:49:39;101495.66;;;13.44;50.55
40490;BME280;26196;52.302;10.572;2023-11-21T20:53:39;101533.94;;;13.55;50.58